San Antonio International Airport
KSAT : now visible

Airfield :











YOU CAN JOIN US ON...

 
LOGIN :

Register | Disclaimer

   EN    FR    IT 

 









Legend :    VFR   Marginal VFR   IFR   Intensive IFR   Very Intensive IFR
Visi :
Ceiling :
>= 8 km
>= 3000ft
5 to 8 km
1000 to 3000 ft
1500m to 5 km
500 to 1000 ft
800 to 1500m
200 to 500 ft
< 800m
< 200 ft
Symbols :   Thunderstorms  Fog  Heavy snow  Heavy precipitations  Wind > 20 kt







- Airport Elevation : 809 ft
- IATA code : SAT


KSAT - San Antonio International

CURRENT METAR :
  • 210551Z 13008KT 10SM BKN250 26/21 A2997 RMK AO2 SLP127 T02560211 10350 20256 403670250 51016 $

EXPIRED METARs :
  • 210451Z 15013KT 10SM BKN250 27/21 A2995 RMK AO2 SLP124 T02670206 $
  • 210351Z 13013KT 10SM BKN250 28/19 A2994 RMK AO2 SLP119 T02830189 $

TAF KSAT
Valid from the 21 at 06:00 until the 22 at 12:00 UTC


210526Z 2106/2212 15013KT P6SM SCT250
FM210800 15010KT P6SM SCT009 BKN015
FM211400 16012KT P6SM SCT250
KZHU FIR / North America



MET'MAP, your aeronautical weather chart ! - Copyright ORBIFLY December 2007 - Disclaimer

ORBIFLY MET'MAP TEAM :

Programming & Development : Alexandra Zaïnal
Concept & Development : Baudouin d'Aumeries
Co-Development & Prog : Marc-Olivier Méhu
Technical & hardware support : Manuel Goepfert

Contact : metmap@orbifly.com




SOURCES & CREDITS :

   NOAA       Earth
Advisory